createdAt,value
2023-04-29T00:01:13.819Z,100081.88
2023-04-29T00:06:17.816Z,100082.31
2023-04-29T00:11:19.757Z,100084.22
2023-04-29T00:16:21.367Z,100086.97
2023-04-29T00:21:23.084Z,100090.72
2023-04-29T00:26:24.810Z,100091.47
2023-04-29T00:31:26.969Z,100089.31
2023-04-29T00:36:29.056Z,100089.19
2023-04-29T00:41:31.743Z,100095.38
2023-04-29T00:46:33.787Z,100092.63
2023-04-29T00:51:37.134Z,100093.94
2023-04-29T00:56:43.311Z,100090.59
2023-04-29T01:01:45.015Z,100091.59
2023-04-29T01:06:54.423Z,100085.66
2023-04-29T01:12:32.166Z,100084.00
2023-04-29T01:17:42.982Z,100089.63
2023-04-29T01:22:45.212Z,100091.28
2023-04-29T01:28:04.564Z,100086.31
2023-04-29T01:33:24.910Z,100096.94
2023-04-29T01:38:34.015Z,100092.03
2023-04-29T01:43:38.362Z,100094.53
2023-04-29T01:48:53.436Z,100094.72
2023-04-29T01:53:55.152Z,100094.84
2023-04-29T01:58:57.086Z,100097.78
2023-04-29T02:04:34.593Z,100100.50
2023-04-29T02:09:37.345Z,100104.84
2023-04-29T02:14:44.384Z,100114.31
2023-04-29T02:19:46.176Z,100124.31
2023-04-29T02:24:48.801Z,100125.94
2023-04-29T02:29:51.759Z,100135.41
2023-04-29T02:34:53.793Z,100134.25
2023-04-29T02:39:56.356Z,100140.59
2023-04-29T02:44:58.400Z,100147.44
2023-04-29T02:50:00.207Z,100136.22
2023-04-29T02:55:01.914Z,100135.78
2023-04-29T03:00:03.983Z,100145.34
2023-04-29T03:05:06.010Z,100149.03
2023-04-29T03:10:08.298Z,100142.00
2023-04-29T03:15:11.668Z,100146.41
2023-04-29T03:20:13.273Z,100152.47
2023-04-29T03:25:14.883Z,100149.03
2023-04-29T03:30:16.933Z,100148.66
2023-04-29T03:35:24.072Z,100151.16
2023-04-29T03:41:01.297Z,100153.53
2023-04-29T03:46:03.311Z,100176.78
2023-04-29T03:51:05.694Z,100174.69
2023-04-29T03:56:07.629Z,100186.56
2023-04-29T04:01:09.344Z,100198.03
2023-04-29T04:06:18.074Z,100199.19
2023-04-29T04:11:20.367Z,100198.91
2023-04-29T04:16:34.242Z,100197.25
2023-04-29T04:21:36.831Z,100209.47
2023-04-29T04:26:42.713Z,100209.78
2023-04-29T04:31:58.911Z,100213.97
2023-04-29T04:37:00.951Z,100229.88
2023-04-29T04:42:05.255Z,100238.94
2023-04-29T04:47:08.314Z,100241.88
2023-04-29T04:52:26.332Z,100252.22
2023-04-29T04:57:38.431Z,100265.91
2023-04-29T05:02:40.443Z,100269.97
2023-04-29T05:07:42.177Z,100284.44
2023-04-29T05:12:44.190Z,100294.63
2023-04-29T05:17:48.409Z,100301.84
2023-04-29T05:22:50.023Z,100316.47
2023-04-29T05:27:51.866Z,100318.38
2023-04-29T05:32:55.110Z,100333.16
2023-04-29T05:37:57.129Z,100328.41
2023-04-29T05:43:31.232Z,100337.38
2023-04-29T05:48:33.083Z,100338.66
2023-04-29T05:53:36.191Z,100356.50
2023-04-29T05:58:37.912Z,100359.72
2023-04-29T06:03:39.746Z,100365.09
2023-04-29T06:08:57.893Z,100361.75
2023-04-29T06:14:03.644Z,100379.19
2023-04-29T06:19:05.553Z,100378.38
2023-04-29T06:24:07.860Z,100402.47
2023-04-29T06:29:09.990Z,100411.06
2023-04-29T06:34:13.182Z,100427.88
2023-04-29T06:39:30.667Z,100449.97
2023-04-29T06:44:51.101Z,100473.13
2023-04-29T06:50:10.907Z,100492.72
2023-04-29T06:55:12.599Z,100511.56
2023-04-29T07:00:16.945Z,100525.97
2023-04-29T07:05:19.652Z,100540.84
2023-04-29T07:10:21.235Z,100545.97
2023-04-29T07:15:22.772Z,100527.94
2023-04-29T07:20:24.844Z,100521.03
2023-04-29T07:25:29.247Z,100499.38
2023-04-29T07:30:30.986Z,100468.72
2023-04-29T07:35:33.230Z,100382.19
2023-04-29T07:40:34.941Z,100332.00
2023-04-29T07:45:37.872Z,100325.22
2023-04-29T07:50:39.457Z,100320.41
2023-04-29T07:55:40.998Z,100318.50
2023-04-29T08:00:43.538Z,100314.06
2023-04-29T08:05:45.394Z,100312.91
2023-04-29T08:10:50.376Z,100308.34
2023-04-29T08:15:52.795Z,100322.38
2023-04-29T08:20:54.935Z,100317.31
2023-04-29T08:25:56.505Z,100305.41
2023-04-29T08:30:58.180Z,100302.88
2023-04-29T08:36:01.602Z,100311.84
2023-04-29T08:41:03.196Z,100319.94
2023-04-29T08:46:05.275Z,100316.63
2023-04-29T08:51:07.525Z,100309.97
2023-04-29T08:56:17.755Z,100295.84
2023-04-29T09:01:19.760Z,100305.22
2023-04-29T09:06:22.008Z,100312.13
2023-04-29T09:11:23.799Z,100312.13
2023-04-29T09:16:25.449Z,100302.66
2023-04-29T09:21:29.187Z,100289.31
2023-04-29T09:26:43.106Z,100293.47
2023-04-29T09:31:45.794Z,100301.47
2023-04-29T09:36:50.042Z,100291.66
2023-04-29T09:41:54.728Z,100287.56
2023-04-29T09:47:04.279Z,100296.22
2023-04-29T09:52:08.111Z,100297.06
2023-04-29T09:57:11.677Z,100293.53
2023-04-29T10:02:18.261Z,100295.38
2023-04-29T10:07:21.330Z,100287.59
2023-04-29T10:12:25.096Z,100284.97
2023-04-29T10:17:55.360Z,100283.94
2023-04-29T10:22:57.062Z,100296.97
2023-04-29T10:28:01.024Z,100302.78
2023-04-29T10:33:04.509Z,100285.34
2023-04-29T10:38:13.370Z,100278.13
2023-04-29T10:43:15.859Z,100265.59
2023-04-29T10:48:19.078Z,100264.31
2023-04-29T10:53:20.836Z,100254.41
2023-04-29T10:58:34.628Z,100228.22
2023-04-29T11:03:59.684Z,100198.69
2023-04-29T11:09:03.442Z,100234.09
2023-04-29T11:14:05.066Z,100178.09
2023-04-29T11:19:08.552Z,100246.19
2023-04-29T11:24:10.331Z,100264.53
2023-04-29T11:29:12.165Z,100279.25
2023-04-29T11:34:13.858Z,100304.38
2023-04-29T11:39:17.100Z,100308.47
2023-04-29T11:44:22.774Z,100318.16
2023-04-29T11:49:30.522Z,100300.41
2023-04-29T11:54:32.257Z,100307.72
2023-04-29T11:59:33.967Z,100299.50
2023-04-29T12:04:45.861Z,100309.94
2023-04-29T12:09:47.534Z,100278.31
2023-04-29T12:14:49.916Z,100299.22
2023-04-29T12:19:51.823Z,100306.50
2023-04-29T12:24:54.576Z,100311.69
2023-04-29T12:29:58.090Z,100312.66
2023-04-29T12:34:59.600Z,100325.56
2023-04-29T12:40:01.212Z,100295.50
2023-04-29T12:45:02.958Z,100309.56
2023-04-29T12:50:07.133Z,100324.63
2023-04-29T12:55:08.868Z,100318.94
2023-04-29T13:00:11.835Z,100321.00
2023-04-29T13:05:13.884Z,100328.31
2023-04-29T13:10:16.390Z,100318.34
2023-04-29T13:15:18.133Z,100310.19
2023-04-29T13:20:22.326Z,100313.41
2023-04-29T13:25:23.844Z,100315.28
2023-04-29T13:30:25.519Z,100320.00
2023-04-29T13:35:27.099Z,100311.88
2023-04-29T13:40:28.712Z,100307.41
2023-04-29T13:45:30.568Z,100280.84
2023-04-29T13:56:11.566Z,100249.06
2023-04-29T14:06:02.823Z,100303.63
2023-04-29T14:11:04.642Z,100288.88
2023-04-29T14:16:07.017Z,100294.31
2023-04-29T14:21:08.827Z,100309.97
2023-04-29T14:26:27.105Z,100297.03
2023-04-29T14:31:31.142Z,100299.72
2023-04-29T14:36:33.116Z,100318.78
2023-04-29T14:41:34.717Z,100345.34
2023-04-29T14:46:36.457Z,100357.09
2023-04-29T14:51:37.989Z,100356.31
2023-04-29T14:56:39.561Z,100350.56
2023-04-29T15:01:41.133Z,100373.69
2023-04-29T15:06:43.198Z,100376.31
2023-04-29T15:11:44.769Z,100388.78
2023-04-29T15:16:46.822Z,100384.97
2023-04-29T15:21:48.650Z,100382.41
2023-04-29T15:26:51.909Z,100398.44
2023-04-29T15:31:53.740Z,100400.31
2023-04-29T15:36:56.355Z,100410.84
2023-04-29T15:41:59.177Z,100420.69
2023-04-29T15:47:00.756Z,100422.16
2023-04-29T15:52:02.407Z,100420.97
2023-04-29T15:57:04.254Z,100435.78
2023-04-29T16:02:10.705Z,100431.72
2023-04-29T16:07:12.313Z,100420.38
2023-04-29T16:12:14.016Z,100418.59
2023-04-29T16:17:15.614Z,100426.75
2023-04-29T16:22:17.392Z,100434.66
2023-04-29T16:27:19.044Z,100429.75
2023-04-29T16:32:21.095Z,100434.16
2023-04-29T16:37:22.822Z,100427.13
2023-04-29T16:42:24.393Z,100433.22
2023-04-29T16:47:25.969Z,100418.16
2023-04-29T16:52:27.545Z,100411.09
2023-04-29T16:57:29.613Z,100421.53
2023-04-29T17:02:31.498Z,100428.13
2023-04-29T17:07:33.257Z,100422.69
2023-04-29T17:12:34.921Z,100426.59
2023-04-29T17:17:36.606Z,100434.53
2023-04-29T17:22:38.564Z,100432.03
2023-04-29T17:27:40.798Z,100429.59
2023-04-29T17:32:44.362Z,100428.06
2023-04-29T17:37:46.876Z,100432.50
2023-04-29T17:42:48.843Z,100439.38
2023-04-29T17:47:50.569Z,100434.72
2023-04-29T17:52:52.167Z,100439.53
2023-04-29T17:57:55.631Z,100442.59
2023-04-29T18:02:57.232Z,100446.38
2023-04-29T18:07:59.054Z,100453.53
2023-04-29T18:13:00.746Z,100468.53
2023-04-29T18:18:02.411Z,100470.59
2023-04-29T18:23:04.002Z,100480.13
2023-04-29T18:28:24.061Z,100483.75
2023-04-29T18:33:26.830Z,100486.28
2023-04-29T18:38:28.374Z,100499.94
2023-04-29T18:43:29.907Z,100499.03
2023-04-29T18:48:31.636Z,100495.16
2023-04-29T18:53:33.452Z,100502.78
2023-04-29T18:58:36.068Z,100518.06
2023-04-29T19:03:37.808Z,100513.75
2023-04-29T19:08:39.501Z,100515.19
2023-04-29T19:13:41.125Z,100528.84
2023-04-29T19:18:42.795Z,100528.91
2023-04-29T19:23:44.458Z,100540.13
2023-04-29T19:28:46.306Z,100543.56
2023-04-29T19:33:48.152Z,100552.56
2023-04-29T19:38:49.952Z,100552.69
2023-04-29T19:43:53.954Z,100553.91
2023-04-29T19:48:55.499Z,100559.78
2023-04-29T19:53:59.960Z,100550.00
2023-04-29T19:59:01.536Z,100560.84
2023-04-29T20:04:03.248Z,100559.88
2023-04-29T20:09:04.987Z,100572.16
2023-04-29T20:14:06.535Z,100572.97
2023-04-29T20:19:08.112Z,100575.25
2023-04-29T20:24:09.892Z,100570.84
2023-04-29T20:29:11.446Z,100582.09
2023-04-29T20:34:13.301Z,100573.66
2023-04-29T20:39:15.064Z,100584.53
2023-04-29T20:44:16.964Z,100581.94
2023-04-29T20:49:19.634Z,100584.47
2023-04-29T20:54:21.192Z,100583.16
2023-04-29T20:59:22.772Z,100591.38
2023-04-29T21:04:24.365Z,100589.69
2023-04-29T21:09:25.927Z,100586.13
2023-04-29T21:14:28.343Z,100588.25
2023-04-29T21:19:29.906Z,100590.25
2023-04-29T21:24:31.578Z,100595.69
2023-04-29T21:29:34.743Z,100598.38
2023-04-29T21:34:36.539Z,100598.59
2023-04-29T21:39:38.104Z,100600.25
2023-04-29T21:44:39.739Z,100605.75
2023-04-29T21:49:41.831Z,100611.09
2023-04-29T21:54:43.508Z,100609.50
2023-04-29T21:59:45.220Z,100605.59
2023-04-29T22:04:47.116Z,100601.50
2023-04-29T22:09:51.864Z,100606.41
2023-04-29T22:14:53.758Z,100612.88
2023-04-29T22:19:55.693Z,100615.91
2023-04-29T22:24:57.584Z,100615.44
2023-04-29T22:29:59.507Z,100612.25
2023-04-29T22:35:01.833Z,100622.38
2023-04-29T22:40:03.657Z,100615.44
2023-04-29T22:45:05.960Z,100627.19
2023-04-29T22:50:07.969Z,100629.53
2023-04-29T22:55:09.847Z,100632.13
2023-04-29T23:00:12.273Z,100635.06
2023-04-29T23:05:14.154Z,100627.25
2023-04-29T23:10:15.714Z,100630.63
2023-04-29T23:15:17.259Z,100637.16
2023-04-29T23:20:18.964Z,100646.94
2023-04-29T23:25:20.576Z,100656.91
2023-04-29T23:30:22.558Z,100659.25
2023-04-29T23:35:24.132Z,100656.31
2023-04-29T23:40:25.768Z,100653.38
2023-04-29T23:45:27.334Z,100654.72
2023-04-29T23:50:28.947Z,100652.03
2023-04-29T23:55:31.609Z,100656.53
